createdAt,value
2023-02-17T00:01:13.880Z,100413.19
2023-02-17T00:03:41.473Z,100414.03
2023-02-17T00:06:10.551Z,100403.41
2023-02-17T00:08:37.905Z,100407.72
2023-02-17T00:11:05.397Z,100407.72
2023-02-17T00:13:32.357Z,100403.28
2023-02-17T00:15:59.560Z,100398.84
2023-02-17T00:18:26.924Z,100398.72
2023-02-17T00:20:53.898Z,100398.84
2023-02-17T00:23:20.694Z,100397.66
2023-02-17T00:25:48.033Z,100392.53
2023-02-17T00:28:14.740Z,100391.34
2023-02-17T00:30:41.375Z,100385.13
2023-02-17T00:33:08.486Z,100370.94
2023-02-17T00:35:39.764Z,100388.59
2023-02-17T00:38:07.676Z,100389.53
2023-02-17T00:40:34.618Z,100383.47
2023-02-17T00:43:02.574Z,100385.22
2023-02-17T00:45:29.377Z,100388.72
2023-02-17T00:47:56.430Z,100378.22
2023-02-17T00:50:23.041Z,100359.59
2023-02-17T00:52:49.800Z,100362.34
2023-02-17T00:55:17.127Z,100375.47
2023-02-17T00:57:43.981Z,100377.09
2023-02-17T01:00:11.144Z,100367.81
2023-02-17T01:02:38.203Z,100359.47
2023-02-17T01:05:05.478Z,100361.59
2023-02-17T01:07:32.382Z,100370.47
2023-02-17T01:09:59.418Z,100363.53
2023-02-17T01:12:27.798Z,100339.06
2023-02-17T01:14:54.433Z,100353.38
2023-02-17T01:17:23.948Z,100355.78
2023-02-17T01:19:51.620Z,100361.03
2023-02-17T01:22:18.513Z,100355.87
2023-02-17T01:24:45.434Z,100345.63
2023-02-17T01:27:12.226Z,100349.44
2023-02-17T01:29:38.851Z,100351.38
2023-02-17T01:32:06.241Z,100352.56
2023-02-17T01:34:33.173Z,100351.00
2023-02-17T01:37:00.175Z,100354.59
2023-02-17T01:39:27.810Z,100357.34
2023-02-17T01:41:54.491Z,100353.88
2023-02-17T01:44:24.282Z,100348.63
2023-02-17T01:46:53.822Z,100352.09
2023-02-17T01:49:38.184Z,100355.44
2023-02-17T01:52:13.208Z,100357.00
2023-02-17T01:54:50.190Z,100355.94
2023-02-17T01:57:21.249Z,100332.06
2023-02-17T01:59:49.217Z,100350.44
2023-02-17T02:02:17.014Z,100348.75
2023-02-17T02:04:49.532Z,100348.75
2023-02-17T02:07:21.805Z,100346.81
2023-02-17T02:09:56.882Z,100336.13
2023-02-17T02:12:27.715Z,100355.56
2023-02-17T02:15:01.804Z,100353.75
2023-02-17T02:17:59.926Z,100343.25
2023-02-17T02:20:49.130Z,100344.94
2023-02-17T02:23:42.365Z,100338.81
2023-02-17T02:26:24.665Z,100342.19
2023-02-17T02:28:54.531Z,100331.56
2023-02-17T02:31:52.850Z,100332.25
2023-02-17T02:34:26.086Z,100340.97
2023-02-17T02:37:05.628Z,100331.31
2023-02-17T02:39:38.034Z,100337.25
2023-02-17T02:42:08.075Z,100338.09
2023-02-17T02:44:35.307Z,100334.50
2023-02-17T02:47:27.338Z,100323.31
2023-02-17T02:49:54.720Z,100332.97
2023-02-17T02:52:45.218Z,100332.00
2023-02-17T02:55:24.271Z,100338.22
2023-02-17T02:58:20.256Z,100337.25
2023-02-17T03:01:14.024Z,100343.34
2023-02-17T03:04:04.234Z,100344.31
2023-02-17T03:06:45.798Z,100324.87
2023-02-17T03:09:22.482Z,100351.09
2023-02-17T03:11:50.349Z,100354.09
2023-02-17T03:14:20.086Z,100353.03
2023-02-17T03:16:48.319Z,100343.00
2023-02-17T03:19:19.029Z,100357.78
2023-02-17T03:22:12.219Z,100354.91
2023-02-17T03:24:39.839Z,100359.09
2023-02-17T03:27:06.797Z,100352.75
2023-02-17T03:29:33.632Z,100344.28
2023-02-17T03:32:00.864Z,100347.38
2023-02-17T03:34:27.551Z,100361.09
2023-02-17T03:36:54.266Z,100349.63
2023-02-17T03:39:21.328Z,100337.00
2023-02-17T03:41:51.513Z,100342.13
2023-02-17T03:44:18.788Z,100352.72
2023-02-17T03:46:46.607Z,100357.97
2023-02-17T03:49:13.454Z,100354.41
2023-02-17T03:51:40.289Z,100354.41
2023-02-17T03:54:07.754Z,100355.22
2023-02-17T03:56:34.527Z,100358.44
2023-02-17T03:59:01.166Z,100351.28
2023-02-17T04:01:28.074Z,100356.28
2023-02-17T04:03:55.124Z,100365.34
2023-02-17T04:06:21.771Z,100347.72
2023-02-17T04:08:48.501Z,100361.91
2023-02-17T04:11:15.696Z,100364.53
2023-02-17T04:13:42.486Z,100365.34
2023-02-17T04:16:10.354Z,100354.78
2023-02-17T04:18:37.785Z,100356.28
2023-02-17T04:21:05.625Z,100364.41
2023-02-17T04:23:32.344Z,100338.41
2023-02-17T04:25:59.470Z,100354.84
2023-02-17T04:28:26.412Z,100345.91
2023-02-17T04:30:53.178Z,100360.22
2023-02-17T04:33:20.158Z,100362.03
2023-02-17T04:35:47.981Z,100358.53
2023-02-17T04:38:15.109Z,100362.97
2023-02-17T04:40:42.749Z,100365.59
2023-02-17T04:43:09.953Z,100364.91
2023-02-17T04:45:37.318Z,100371.81
2023-02-17T04:48:04.444Z,100375.16
2023-02-17T04:50:31.114Z,100371.59
2023-02-17T04:52:57.796Z,100371.69
2023-02-17T04:55:24.802Z,100375.16
2023-02-17T04:57:51.470Z,100383.03
2023-02-17T05:00:18.425Z,100378.63
2023-02-17T05:02:45.328Z,100382.09
2023-02-17T05:05:15.250Z,100377.78
2023-02-17T05:07:43.266Z,100373.22
2023-02-17T05:10:10.653Z,100375.28
2023-02-17T05:12:38.222Z,100385.66
2023-02-17T05:15:05.943Z,100388.31
2023-02-17T05:17:33.027Z,100380.66
2023-02-17T05:20:00.125Z,100385.66
2023-02-17T05:22:27.200Z,100385.78
2023-02-17T05:24:54.485Z,100367.28
2023-02-17T05:27:21.386Z,100386.88
2023-02-17T05:29:48.176Z,100386.88
2023-02-17T05:32:15.288Z,100399.56
2023-02-17T05:34:42.056Z,100407.69
2023-02-17T05:37:08.753Z,100405.66
2023-02-17T05:39:35.839Z,100409.59
2023-02-17T05:42:02.531Z,100398.41
2023-02-17T05:44:29.277Z,100408.66
2023-02-17T05:46:56.491Z,100420.09
2023-02-17T05:49:23.707Z,100426.34
2023-02-17T05:51:50.637Z,100434.69
2023-02-17T05:54:18.191Z,100428.81
2023-02-17T05:56:45.138Z,100428.13
2023-02-17T05:59:11.871Z,100428.94
2023-02-17T06:01:38.945Z,100422.00
2023-02-17T06:04:06.006Z,100433.25
2023-02-17T06:06:33.286Z,100432.28
2023-02-17T06:09:00.686Z,100433.00
2023-02-17T06:11:28.227Z,100440.03
2023-02-17T06:13:55.353Z,100441.72
2023-02-17T06:16:24.870Z,100450.53
2023-02-17T06:18:52.084Z,100452.22
2023-02-17T06:21:19.210Z,100452.34
2023-02-17T06:23:46.477Z,100456.75
2023-02-17T06:26:14.954Z,100459.50
2023-02-17T06:28:41.883Z,100461.28
2023-02-17T06:31:09.615Z,100461.16
2023-02-17T06:33:37.454Z,100462.84
2023-02-17T06:36:05.543Z,100462.84
2023-02-17T06:38:32.837Z,100468.09
2023-02-17T06:41:01.827Z,100473.22
2023-02-17T06:43:29.181Z,100473.22
2023-02-17T06:45:56.397Z,100479.53
2023-02-17T06:48:23.380Z,100480.28
2023-02-17T06:50:50.510Z,100480.38
2023-02-17T06:53:17.161Z,100477.75
2023-02-17T06:55:44.964Z,100478.59
2023-02-17T06:58:12.015Z,100473.22
2023-02-17T07:00:38.832Z,100481.09
2023-02-17T07:03:05.980Z,100483.59
2023-02-17T07:05:36.179Z,100489.59
2023-02-17T07:08:04.092Z,100487.91
2023-02-17T07:10:31.629Z,100471.88
2023-02-17T07:12:58.547Z,100497.09
2023-02-17T07:15:25.439Z,100492.81
2023-02-17T07:17:52.406Z,100497.81
2023-02-17T07:20:19.412Z,100491.97
2023-02-17T07:22:46.403Z,100500.44
2023-02-17T07:25:13.744Z,100498.63
2023-02-17T07:27:40.474Z,100498.63
2023-02-17T07:30:07.789Z,100495.06
2023-02-17T07:32:44.357Z,100482.78
2023-02-17T07:35:11.148Z,100498.88
2023-02-17T07:37:38.238Z,100502.47
2023-02-17T07:40:05.764Z,100491.00
2023-02-17T07:42:32.508Z,100496.50
2023-02-17T07:44:59.506Z,100505.81
2023-02-17T07:47:26.384Z,100509.25
2023-02-17T07:49:53.019Z,100488.97
2023-02-17T07:52:20.034Z,100499.97
2023-02-17T07:54:46.981Z,100512.28
2023-02-17T07:57:13.806Z,100517.53
2023-02-17T07:59:40.793Z,100520.16
2023-02-17T08:02:07.561Z,100511.06
2023-02-17T08:04:34.627Z,100525.88
2023-02-17T08:07:01.353Z,100522.88
2023-02-17T08:09:47.128Z,100511.06
2023-02-17T08:12:38.438Z,100525.37
2023-02-17T08:15:07.833Z,100522.88
2023-02-17T08:17:35.397Z,100526.69
2023-02-17T08:20:08.569Z,100524.22
2023-02-17T08:22:37.209Z,100528.28
2023-02-17T08:25:06.191Z,100536.63
2023-02-17T08:27:33.038Z,100538.87
2023-02-17T08:30:00.573Z,100533.41
2023-02-17T08:32:27.590Z,100541.03
2023-02-17T08:34:57.576Z,100539.13
2023-02-17T08:37:24.588Z,100549.53
2023-02-17T08:39:51.231Z,100542.47
2023-02-17T08:42:18.069Z,100539.13
2023-02-17T08:44:45.380Z,100535.91
2023-02-17T08:47:12.253Z,100557.06
2023-02-17T08:49:40.810Z,100555.97
2023-02-17T08:52:08.027Z,100555.72
2023-02-17T08:54:34.753Z,100550.47
2023-02-17T08:57:01.463Z,100561.47
2023-02-17T08:59:28.608Z,100562.28
2023-02-17T09:01:55.799Z,100563.84
2023-02-17T09:04:22.551Z,100547.50
2023-02-17T09:06:56.684Z,100565.16
2023-02-17T09:09:27.794Z,100553.91
2023-02-17T09:11:57.154Z,100557.28
2023-02-17T09:14:24.098Z,100563.81
2023-02-17T09:16:51.959Z,100567.19
2023-02-17T09:19:19.420Z,100567.06
2023-02-17T09:21:46.369Z,100573.97
2023-02-17T09:24:13.178Z,100573.88
2023-02-17T09:26:40.251Z,100573.88
2023-02-17T09:29:08.716Z,100574.81
2023-02-17T09:31:36.242Z,100573.97
2023-02-17T09:34:04.359Z,100568.50
2023-02-17T09:36:33.777Z,100572.19
2023-02-17T09:39:01.731Z,100563.25
2023-02-17T09:41:38.018Z,100553.31
2023-02-17T09:44:17.260Z,100568.25
2023-02-17T09:47:01.679Z,100574.09
2023-02-17T09:49:41.053Z,100571.91
2023-02-17T09:52:27.233Z,100572.66
2023-02-17T09:54:59.556Z,100572.41
2023-02-17T09:57:29.417Z,100562.37
2023-02-17T10:00:02.588Z,100580.16
2023-02-17T10:02:49.098Z,100573.34
2023-02-17T10:05:20.111Z,100571.78
2023-02-17T10:07:56.854Z,100571.53
2023-02-17T10:10:34.800Z,100562.59
2023-02-17T10:13:03.134Z,100561.25
2023-02-17T10:15:40.705Z,100570.47
2023-02-17T10:18:26.642Z,100572.34
2023-02-17T10:21:25.583Z,100578.31
2023-02-17T10:23:52.466Z,100572.22
2023-02-17T10:26:54.794Z,100555.25
2023-02-17T10:29:32.108Z,100570.16
2023-02-17T10:32:19.979Z,100568.25
2023-02-17T10:35:02.401Z,100566.19
2023-02-17T10:37:32.342Z,100557.94
2023-02-17T10:40:01.438Z,100562.69
2023-02-17T10:42:34.569Z,100561.59
2023-02-17T10:45:06.607Z,100562.78
2023-02-17T10:47:36.853Z,100561.41
2023-02-17T10:50:08.100Z,100562.72
2023-02-17T10:52:40.654Z,100565.91
2023-02-17T10:55:33.046Z,100502.91
2023-02-17T10:58:13.819Z,100572.22
2023-02-17T11:00:42.720Z,100552.81
2023-02-17T11:03:24.208Z,100548.19
2023-02-17T11:05:59.565Z,100565.44
2023-02-17T11:08:39.254Z,100565.91
2023-02-17T11:11:15.992Z,100559.81
2023-02-17T11:14:01.146Z,100548.25
2023-02-17T11:16:35.150Z,100556.41
2023-02-17T11:19:03.713Z,100566.16
2023-02-17T11:21:33.237Z,100551.63
2023-02-17T11:24:05.856Z,100565.44
2023-02-17T11:26:36.388Z,100568.50
2023-02-17T11:29:11.537Z,100566.44
2023-02-17T11:31:38.693Z,100556.88
2023-02-17T11:34:13.756Z,100563.50
2023-02-17T11:36:40.970Z,100570.56
2023-02-17T11:39:18.515Z,100553.72
2023-02-17T11:41:45.510Z,100569.97
2023-02-17T11:44:15.084Z,100556.09
2023-02-17T11:46:53.335Z,100546.34
2023-02-17T11:50:01.412Z,100555.63
2023-02-17T11:52:27.988Z,100557.56
2023-02-17T11:55:19.357Z,100552.19
2023-02-17T11:57:59.045Z,100542.16
2023-02-17T12:00:37.246Z,100553.72
2023-02-17T12:03:36.841Z,100552.06
2023-02-17T12:06:09.970Z,100552.19
2023-02-17T12:09:04.843Z,100554.25
2023-02-17T12:11:51.714Z,100550.62
2023-02-17T12:14:37.466Z,100549.09
2023-02-17T12:17:06.074Z,100545.34
2023-02-17T12:19:45.780Z,100552.31
2023-02-17T12:22:29.297Z,100549.94
2023-02-17T12:25:26.795Z,100550.69
2023-02-17T12:28:07.895Z,100549.41
2023-02-17T12:31:01.024Z,100549.78
2023-02-17T12:34:03.891Z,100554.09
2023-02-17T12:36:36.663Z,100549.78
2023-02-17T12:39:13.433Z,100554.47
2023-02-17T12:42:01.230Z,100534.88
2023-02-17T12:44:52.616Z,100553.34
2023-02-17T12:47:58.299Z,100543.56
2023-02-17T12:50:32.943Z,100545.34
2023-02-17T12:53:05.524Z,100556.22
2023-02-17T12:55:37.922Z,100551.66
2023-02-17T12:58:15.887Z,100546.38
2023-02-17T13:00:46.257Z,100544.69
2023-02-17T13:03:13.289Z,100546.06
2023-02-17T13:05:48.109Z,100545.94
2023-02-17T13:08:18.093Z,100549.53
2023-02-17T13:10:44.819Z,100539.00
2023-02-17T13:13:25.578Z,100530.19
2023-02-17T13:16:22.486Z,100543.09
2023-02-17T13:18:52.127Z,100538.34
2023-02-17T13:21:23.368Z,100544.31
2023-02-17T13:24:07.066Z,100547.66
2023-02-17T13:26:36.467Z,100545.28
2023-02-17T13:29:32.181Z,100540.38
2023-02-17T13:32:04.761Z,100533.69
2023-02-17T13:34:42.459Z,100532.41
2023-02-17T13:37:15.975Z,100523.34
2023-02-17T13:39:43.041Z,100531.19
2023-02-17T13:42:28.768Z,100531.06
2023-02-17T13:44:55.554Z,100533.81
2023-02-17T13:47:37.899Z,100538.37
2023-02-17T13:50:05.145Z,100541.84
2023-02-17T13:52:32.689Z,100535.16
2023-02-17T13:55:02.292Z,100534.12
2023-02-17T13:57:31.747Z,100538.34
2023-02-17T14:00:09.260Z,100537.03
2023-02-17T14:02:45.587Z,100522.38
2023-02-17T14:05:30.549Z,100534.19
2023-02-17T14:08:03.292Z,100535.25
2023-02-17T14:10:30.845Z,100509.13
2023-02-17T14:12:57.608Z,100540.16
2023-02-17T14:15:28.230Z,100541.25
2023-02-17T14:17:55.629Z,100549.03
2023-02-17T14:20:25.109Z,100534.91
2023-02-17T14:23:13.252Z,100528.72
2023-02-17T14:25:44.861Z,100544.84
2023-02-17T14:28:38.157Z,100544.25
2023-02-17T14:31:12.358Z,100547.84
2023-02-17T14:33:39.176Z,100538.63
2023-02-17T14:36:09.201Z,100540.19
2023-02-17T14:38:40.516Z,100540.31
2023-02-17T14:41:11.769Z,100539.59
2023-02-17T14:43:38.478Z,100546.88
2023-02-17T14:46:05.737Z,100547.25
2023-02-17T14:48:32.906Z,100538.66
2023-02-17T14:51:00.018Z,100545.69
2023-02-17T14:53:29.565Z,100546.78
2023-02-17T14:56:01.510Z,100548.09
2023-02-17T14:58:29.381Z,100552.53
2023-02-17T15:00:56.720Z,100564.09
2023-02-17T15:03:23.800Z,100557.16
2023-02-17T15:05:50.901Z,100551.91
2023-02-17T15:08:28.001Z,100556.56
2023-02-17T15:10:55.089Z,100560.38
2023-02-17T15:13:22.486Z,100550.13
2023-02-17T15:15:49.753Z,100551.91
2023-02-17T15:18:18.942Z,100552.88
2023-02-17T15:20:50.097Z,100560.88
2023-02-17T15:23:19.748Z,100556.69
2023-02-17T15:25:48.275Z,100555.03
2023-02-17T15:28:16.896Z,100555.03
2023-02-17T15:30:51.271Z,100553.34
2023-02-17T15:33:18.654Z,100554.41
2023-02-17T15:35:50.984Z,100537.09
2023-02-17T15:38:17.898Z,100553.94
2023-02-17T15:40:44.632Z,100549.88
2023-02-17T15:43:15.166Z,100546.88
2023-02-17T15:45:42.318Z,100538.25
2023-02-17T15:48:14.312Z,100546.13
2023-02-17T15:50:40.975Z,100548.03
2023-02-17T15:53:07.904Z,100545.03
2023-02-17T15:55:34.848Z,100547.78
2023-02-17T15:58:06.034Z,100550.62
2023-02-17T16:00:35.601Z,100549.31
2023-02-17T16:03:03.315Z,100538.91
2023-02-17T16:05:30.941Z,100535.94
2023-02-17T16:07:58.107Z,100535.06
2023-02-17T16:10:29.801Z,100542.59
2023-02-17T16:13:00.067Z,100535.78
2023-02-17T16:15:31.023Z,100538.50
2023-02-17T16:17:58.962Z,100535.28
2023-02-17T16:20:35.216Z,100534.53
2023-02-17T16:23:03.052Z,100529.41
2023-02-17T16:25:30.166Z,100518.44
2023-02-17T16:27:57.822Z,100525.37
2023-02-17T16:30:30.497Z,100525.47
2023-02-17T16:32:57.836Z,100522.97
2023-02-17T16:35:28.103Z,100519.72
2023-02-17T16:38:02.049Z,100531.06
2023-02-17T16:40:31.981Z,100530.22
2023-02-17T16:42:58.744Z,100534.75
2023-02-17T16:45:29.290Z,100531.41
2023-02-17T16:48:00.439Z,100533.91
2023-02-17T16:50:35.087Z,100540.72
2023-02-17T16:53:06.015Z,100531.06
2023-02-17T16:55:34.716Z,100534.53
2023-02-17T16:58:02.724Z,100538.94
2023-02-17T17:00:32.434Z,100536.19
2023-02-17T17:02:59.728Z,100529.16
2023-02-17T17:05:29.501Z,100523.91
2023-02-17T17:07:57.404Z,100522.75
2023-02-17T17:10:27.762Z,100518.56
2023-02-17T17:12:54.458Z,100526.91
2023-02-17T17:15:22.144Z,100517.63
2023-02-17T17:17:48.725Z,100518.31
2023-02-17T17:20:18.275Z,100522.75
2023-02-17T17:22:46.709Z,100515.69
2023-02-17T17:25:14.570Z,100509.75
2023-02-17T17:27:41.817Z,100510.22
2023-02-17T17:30:16.282Z,100502.34
2023-02-17T17:32:43.131Z,100498.03
2023-02-17T17:35:10.167Z,100493.03
2023-02-17T17:37:39.369Z,100485.41
2023-02-17T17:40:07.477Z,100481.22
2023-02-17T17:42:37.598Z,100479.66
2023-02-17T17:45:04.708Z,100473.09
2023-02-17T17:47:32.088Z,100477.37
2023-02-17T17:49:59.222Z,100474.87
2023-02-17T17:52:26.120Z,100463.66
2023-02-17T17:54:52.807Z,100475.09
2023-02-17T17:57:19.685Z,100469.12
2023-02-17T17:59:46.308Z,100466.50
2023-02-17T18:02:12.948Z,100448.84
2023-02-17T18:04:39.863Z,100461.25
2023-02-17T18:07:06.835Z,100453.16
2023-02-17T18:09:38.071Z,100457.47
2023-02-17T18:12:11.069Z,100454.97
2023-02-17T18:14:40.128Z,100448.66
2023-02-17T18:17:09.700Z,100435.25
2023-02-17T18:19:36.580Z,100423.13
2023-02-17T18:22:03.277Z,100437.41
2023-02-17T18:24:30.461Z,100428.72
2023-02-17T18:26:57.301Z,100418.34
2023-02-17T18:29:24.197Z,100408.09
2023-02-17T18:31:51.256Z,100418.25
2023-02-17T18:34:17.932Z,100405.25
2023-02-17T18:36:45.264Z,100403.44
2023-02-17T18:39:12.416Z,100402.63
2023-02-17T18:41:39.127Z,100390.56
2023-02-17T18:44:06.110Z,100394.75
2023-02-17T18:46:33.482Z,100391.19
2023-02-17T18:49:00.506Z,100371.84
2023-02-17T18:51:27.798Z,100388.69
2023-02-17T18:53:56.783Z,100386.06
2023-02-17T18:56:26.230Z,100384.25
2023-02-17T18:58:55.303Z,100374.84
2023-02-17T19:01:23.804Z,100362.53
2023-02-17T19:03:51.853Z,100373.31
2023-02-17T19:06:23.839Z,100363.03
2023-02-17T19:08:51.530Z,100362.06
2023-02-17T19:11:19.887Z,100365.91
2023-02-17T19:13:46.812Z,100362.31
2023-02-17T19:16:25.512Z,100357.19
2023-02-17T19:18:52.674Z,100358.84
2023-02-17T19:21:20.588Z,100354.44
2023-02-17T19:23:48.336Z,100346.56
2023-02-17T19:26:16.830Z,100350.16
2023-02-17T19:28:44.729Z,100338.94
2023-02-17T19:31:17.558Z,100332.53
2023-02-17T19:33:45.738Z,100345.50
2023-02-17T19:36:15.792Z,100339.34
2023-02-17T19:38:43.364Z,100334.91
2023-02-17T19:41:11.905Z,100340.03
2023-02-17T19:43:40.553Z,100343.38
2023-02-17T19:46:07.986Z,100338.97
2023-02-17T19:48:35.201Z,100333.72
2023-02-17T19:51:04.630Z,100320.75
2023-02-17T19:53:33.789Z,100325.75
2023-02-17T19:56:13.014Z,100318.81
2023-02-17T19:58:41.419Z,100317.03
2023-02-17T20:01:14.414Z,100317.75
2023-02-17T20:03:42.200Z,100304.53
2023-02-17T20:06:25.701Z,100307.03
2023-02-17T20:08:59.648Z,100307.97
2023-02-17T20:11:27.727Z,100293.09
2023-02-17T20:13:56.708Z,100295.47
2023-02-17T20:16:23.503Z,100278.66
2023-02-17T20:18:51.104Z,100253.16
2023-02-17T20:21:21.778Z,100271.53
2023-02-17T20:23:48.950Z,100259.34
2023-02-17T20:26:19.951Z,100246.97
2023-02-17T20:28:47.958Z,100260.16
2023-02-17T20:31:15.416Z,100261.72
2023-02-17T20:33:42.154Z,100253.87
2023-02-17T20:36:12.100Z,100251.13
2023-02-17T20:38:41.256Z,100240.53
2023-02-17T20:41:09.993Z,100244.44
2023-02-17T20:43:38.540Z,100234.69
2023-02-17T20:46:06.071Z,100231.19
2023-02-17T20:48:33.516Z,100223.22
2023-02-17T20:51:00.714Z,100203.44
2023-02-17T20:53:27.448Z,100204.97
2023-02-17T20:55:54.254Z,100201.66
2023-02-17T20:58:21.477Z,100199.72
2023-02-17T21:00:48.634Z,100199.72
2023-02-17T21:03:15.658Z,100197.97
2023-02-17T21:05:42.717Z,100182.09
2023-02-17T21:08:09.755Z,100159.94
2023-02-17T21:10:36.570Z,100173.25
2023-02-17T21:13:03.577Z,100163.75
2023-02-17T21:15:30.253Z,100158.38
2023-02-17T21:17:56.938Z,100155.63
2023-02-17T21:20:23.993Z,100155.50
2023-02-17T21:22:51.229Z,100147.62
2023-02-17T21:25:17.945Z,100134.75
2023-02-17T21:27:44.912Z,100141.28
2023-02-17T21:30:12.757Z,100125.53
2023-02-17T21:32:39.547Z,100116.97
2023-02-17T21:35:10.619Z,100115.06
2023-02-17T21:37:38.964Z,100107.91
2023-02-17T21:40:11.281Z,100099.91
2023-02-17T21:42:58.317Z,100093.81
2023-02-17T21:45:25.701Z,100088.56
2023-02-17T21:47:53.568Z,100062.03
2023-02-17T21:50:23.257Z,100062.59
2023-02-17T21:52:50.650Z,100060.69
2023-02-17T21:55:17.698Z,100043.78
2023-02-17T21:57:44.438Z,100036.87
2023-02-17T22:00:12.917Z,100044.47
2023-02-17T22:02:39.999Z,100034.00
2023-02-17T22:05:08.833Z,100051.63
2023-02-17T22:07:35.682Z,100035.16
2023-02-17T22:10:03.834Z,100041.13
2023-02-17T22:12:30.783Z,100027.03
2023-02-17T22:14:57.526Z,100023.47
2023-02-17T22:17:24.188Z,100020.00
2023-02-17T22:19:51.200Z,99998.94
2023-02-17T22:22:17.809Z,100000.50
2023-02-17T22:24:44.565Z,99995.13
2023-02-17T22:27:11.592Z,100011.88
2023-02-17T22:29:38.262Z,99998.03
2023-02-17T22:32:05.213Z,99996.03
2023-02-17T22:34:32.419Z,99982.03
2023-02-17T22:36:59.077Z,99976.94
2023-02-17T22:39:25.750Z,99974.31
2023-02-17T22:41:52.711Z,99978.34
2023-02-17T22:44:19.423Z,99975.72
2023-02-17T22:46:46.110Z,99964.53
2023-02-17T22:49:13.273Z,99962.59
2023-02-17T22:51:40.554Z,99962.47
2023-02-17T22:54:07.865Z,99958.03
2023-02-17T22:56:35.310Z,99948.41
2023-02-17T22:59:03.970Z,99939.50
2023-02-17T23:01:33.158Z,99948.28
2023-02-17T23:04:00.683Z,99934.69
2023-02-17T23:06:31.909Z,99926.00
2023-02-17T23:08:59.495Z,99919.81
2023-02-17T23:11:48.980Z,99924.41
2023-02-17T23:14:23.203Z,99919.84
2023-02-17T23:16:50.668Z,99929.38
2023-02-17T23:19:20.617Z,99915.28
2023-02-17T23:21:52.944Z,99915.06
2023-02-17T23:24:20.964Z,99914.06
2023-02-17T23:26:48.238Z,99908.81
2023-02-17T23:29:16.264Z,99914.78
2023-02-17T23:31:49.599Z,99901.34
2023-02-17T23:34:16.712Z,99919.63
2023-02-17T23:36:45.481Z,99913.28
2023-02-17T23:39:13.302Z,99905.41
2023-02-17T23:41:40.339Z,99888.28
2023-02-17T23:44:09.621Z,99878.72
2023-02-17T23:46:36.593Z,99861.72
2023-02-17T23:49:03.442Z,99885.41
2023-02-17T23:51:30.467Z,99864.00
2023-02-17T23:53:57.146Z,99878.94
2023-02-17T23:56:34.985Z,99854.31
2023-02-17T23:59:02.597Z,99871.87
